Time;durP1;ratioP1;P1;durP2;ratioP2;P2;SDS_P1;SDS_P2;PMS_P1;PMS_P2;Temp;Humidity;BMP_temperature;BMP_pressure;BME280_temperature;BME280_humidity;BME280_pressure;Samples;Min_cycle;Max_cycle;Signal;HPM_P1;HPM_P2
2023/06/12 00:02:37;;;;;;;7.85;4.30;;;18.20;99.90;;;;;;7343155;32;20104;-57
2023/06/12 00:06:39;;;;;;;9.20;4.00;;;18.30;99.90;;;;;;7352019;32;20534;-57
2023/06/12 00:10:46;;;;;;;5.78;3.50;;;18.20;99.90;;;;;;7349842;32;20134;-56
2023/06/12 00:14:48;;;;;;;5.07;4.32;;;18.20;99.90;;;;;;7351179;32;20119;-56
2023/06/12 00:18:51;;;;;;;5.97;4.10;;;18.30;99.90;;;;;;7350336;32;20284;-57
2023/06/12 00:22:53;;;;;;;7.00;4.28;;;18.20;99.90;;;;;;7352900;32;20164;-56
2023/06/12 00:26:55;;;;;;;10.68;4.65;;;18.10;99.90;;;;;;7349819;32;20134;-56
2023/06/12 00:30:57;;;;;;;5.82;4.50;;;17.90;99.90;;;;;;7346206;32;20111;-55
2023/06/12 00:34:59;;;;;;;6.68;4.40;;;17.90;99.90;;;;;;7344066;32;20245;-56
2023/06/12 00:39:02;;;;;;;10.35;4.40;;;17.70;99.90;;;;;;7351498;32;20111;-56
2023/06/12 00:43:05;;;;;;;5.53;4.25;;;17.60;99.90;;;;;;7347097;32;20111;-55
2023/06/12 00:47:09;;;;;;;7.00;4.28;;;17.40;99.90;;;;;;7347616;32;20564;-55
2023/06/12 00:51:11;;;;;;;5.32;4.10;;;17.30;99.90;;;;;;7345106;32;20221;-56
2023/06/12 00:55:14;;;;;;;7.35;4.30;;;17.00;99.90;;;;;;7345364;32;20710;-55
2023/06/12 00:59:19;;;;;;;7.78;4.55;;;16.80;99.90;;;;;;7346979;32;20146;-55
2023/06/12 01:03:22;;;;;;;5.55;4.72;;;16.60;99.90;;;;;;7345430;32;20233;-55
2023/06/12 01:07:38;;;;;;;6.32;4.70;;;16.40;99.90;;;;;;7349641;32;20644;-55
2023/06/12 01:11:41;;;;;;;6.18;4.57;;;16.30;99.90;;;;;;7351214;32;20210;-56
2023/06/12 01:15:43;;;;;;;5.40;4.55;;;16.10;99.90;;;;;;7350076;32;20169;-56
2023/06/12 01:19:45;;;;;;;4.97;4.47;;;15.90;99.90;;;;;;7351793;32;20174;-55
2023/06/12 01:24:21;;;;;;;4.80;4.28;;;15.70;99.90;;;;;;7349496;32;20126;-56
2023/06/12 01:28:51;;;;;;;5.47;3.87;;;15.50;99.90;;;;;;7348350;32;20168;-55
2023/06/12 01:32:57;;;;;;;7.43;5.15;;;15.30;99.90;;;;;;7347188;32;20099;-55
2023/06/12 01:37:09;;;;;;;7.62;4.68;;;15.10;99.90;;;;;;7352261;32;20111;-56
2023/06/12 01:41:11;;;;;;;7.43;4.70;;;15.00;99.90;;;;;;7347294;32;20257;-55
2023/06/12 01:45:13;;;;;;;6.00;4.78;;;14.80;99.90;;;;;;7350534;32;20123;-55
2023/06/12 01:49:14;;;;;;;5.20;4.60;;;14.70;99.90;;;;;;7349430;32;20126;-55
2023/06/12 01:53:16;;;;;;;5.18;4.65;;;14.60;99.90;;;;;;7352891;32;20166;-55
2023/06/12 01:57:21;;;;;;;8.32;5.07;;;14.50;99.90;;;;;;7348720;32;20120;-55
2023/06/12 02:01:23;;;;;;;7.80;5.03;;;14.40;99.90;;;;;;7345284;32;21450;-55
2023/06/12 02:05:26;;;;;;;8.38;5.05;;;14.30;99.90;;;;;;7351568;32;20179;-55
2023/06/12 02:09:27;;;;;;;10.02;4.97;;;14.10;99.90;;;;;;7360544;32;20095;-55
2023/06/12 02:13:29;;;;;;;7.25;5.05;;;14.10;99.90;;;;;;7360365;32;20099;-56
2023/06/12 02:17:32;;;;;;;8.45;4.80;;;14.10;99.90;;;;;;7348806;32;21007;-55
2023/06/12 02:21:34;;;;;;;5.95;5.35;;;13.90;99.90;;;;;;7360429;32;20103;-55
2023/06/12 02:25:35;;;;;;;5.97;4.85;;;13.80;99.90;;;;;;7354770;32;20758;-55
2023/06/12 02:29:37;;;;;;;7.32;5.10;;;13.80;99.90;;;;;;7350317;32;20095;-55
2023/06/12 02:33:39;;;;;;;7.55;4.80;;;13.70;99.90;;;;;;7354090;32;20133;-56
2023/06/12 02:37:41;;;;;;;6.00;5.30;;;13.70;99.90;;;;;;7353809;32;20218;-55
2023/06/12 02:41:45;;;;;;;6.35;4.45;;;13.60;99.90;;;;;;7350707;32;20103;-55
2023/06/12 02:45:46;;;;;;;8.45;4.97;;;13.70;99.90;;;;;;7356213;32;20112;-55
2023/06/12 02:49:48;;;;;;;8.50;4.95;;;13.60;99.90;;;;;;7356884;32;20167;-55
2023/06/12 02:53:50;;;;;;;5.93;4.72;;;13.50;99.90;;;;;;7352719;32;20130;-56
2023/06/12 02:57:53;;;;;;;7.30;5.18;;;13.50;99.90;;;;;;7355295;32;20115;-55
2023/06/12 03:01:54;;;;;;;7.87;5.20;;;13.50;99.90;;;;;;7356882;32;20177;-55
2023/06/12 03:05:56;;;;;;;5.80;4.60;;;13.40;99.90;;;;;;7355424;32;20699;-55
2023/06/12 03:09:58;;;;;;;6.82;5.18;;;13.30;99.90;;;;;;7358451;32;20194;-54
2023/06/12 03:14:00;;;;;;;8.90;5.18;;;13.20;99.90;;;;;;7353424;32;20107;-56
2023/06/12 03:18:02;;;;;;;6.90;5.37;;;13.20;99.90;;;;;;7347407;32;20206;-55
2023/06/12 03:22:04;;;;;;;9.02;5.28;;;13.30;99.90;;;;;;7353209;32;20111;-55
2023/06/12 03:26:06;;;;;;;8.82;5.82;;;13.20;99.90;;;;;;7351105;32;20133;-55
2023/06/12 03:30:08;;;;;;;7.97;5.57;;;13.20;99.90;;;;;;7354843;32;20146;-55
2023/06/12 03:34:11;;;;;;;9.75;5.43;;;13.10;99.90;;;;;;7351875;32;20253;-56
2023/06/12 03:38:13;;;;;;;7.95;4.87;;;13.10;99.90;;;;;;7347101;32;20206;-55
2023/06/12 03:42:15;;;;;;;7.00;5.10;;;13.10;99.90;;;;;;7349985;32;20486;-55
2023/06/12 03:46:17;;;;;;;8.73;4.97;;;13.10;99.90;;;;;;7349739;32;20680;-56
2023/06/12 03:50:19;;;;;;;9.45;5.45;;;13.20;99.90;;;;;;7354022;32;20475;-55
2023/06/12 03:54:21;;;;;;;9.27;5.93;;;13.10;99.90;;;;;;7347417;32;20245;-56
2023/06/12 03:58:24;;;;;;;7.62;5.07;;;13.10;99.90;;;;;;7350139;32;20852;-55
2023/06/12 04:02:26;;;;;;;7.57;5.82;;;13.10;99.90;;;;;;7350149;32;20273;-55
2023/06/12 04:06:29;;;;;;;6.22;4.82;;;13.10;99.90;;;;;;7349887;32;20111;-55
2023/06/12 04:10:33;;;;;;;7.65;5.22;;;13.20;99.90;;;;;;7351532;32;20128;-56
2023/06/12 04:14:35;;;;;;;7.20;5.30;;;13.30;99.90;;;;;;7349770;32;20138;-56
2023/06/12 04:18:39;;;;;;;9.57;5.50;;;13.40;99.90;;;;;;7343732;32;20119;-56
2023/06/12 04:22:41;;;;;;;6.55;5.43;;;13.40;99.90;;;;;;7351188;32;20242;-61
2023/06/12 04:26:46;;;;;;;6.03;4.90;;;13.60;99.90;;;;;;7348402;32;20111;-60
2023/06/12 04:30:55;;;;;;;7.05;5.20;;;13.80;99.90;;;;;;7348441;32;20122;-57
2023/06/12 04:34:57;;;;;;;8.60;5.05;;;14.10;99.90;;;;;;7352395;32;20163;-56
2023/06/12 04:39:01;;;;;;;12.85;4.85;;;14.40;99.90;;;;;;7333958;32;20104;-55
2023/06/12 04:43:06;;;;;;;7.12;5.22;;;14.70;99.90;;;;;;7345173;32;20835;-56
2023/06/12 04:47:10;;;;;;;6.85;4.87;;;15.00;99.90;;;;;;7347152;32;20171;-55
2023/06/12 04:51:13;;;;;;;10.48;5.93;;;15.40;99.90;;;;;;7345249;32;20137;-60
2023/06/12 04:55:20;;;;;;;6.18;5.57;;;15.70;99.90;;;;;;7348210;32;20112;-60
2023/06/12 04:59:22;;;;;;;7.12;4.90;;;16.30;99.90;;;;;;7346252;32;20176;-55
2023/06/12 05:03:25;;;;;;;10.40;5.70;;;17.00;99.90;;;;;;7345857;32;20194;-56
2023/06/12 05:07:34;;;;;;;6.07;4.37;;;17.80;99.90;;;;;;7346701;32;20178;-57
2023/06/12 05:11:35;;;;;;;7.45;5.35;;;18.60;99.90;;;;;;7349952;32;20530;-57
2023/06/12 05:15:37;;;;;;;7.65;5.10;;;19.20;99.90;;;;;;7348118;32;20232;-56
2023/06/12 05:19:39;;;;;;;6.15;4.57;;;20.00;99.90;;;;;;7347866;32;20186;-60
2023/06/12 05:23:41;;;;;;;8.85;4.62;;;20.40;99.90;;;;;;7351541;32;20668;-56
2023/06/12 05:27:43;;;;;;;7.00;5.10;;;20.80;99.90;;;;;;7343885;32;20133;-55
2023/06/12 05:31:45;;;;;;;5.20;4.40;;;21.30;99.90;;;;;;7340809;32;20528;-56
2023/06/12 05:35:49;;;;;;;6.32;4.47;;;21.70;99.90;;;;;;7339943;32;20155;-57
2023/06/12 05:39:50;;;;;;;8.05;5.00;;;22.20;99.90;;;;;;7339722;32;20162;-58
2023/06/12 05:43:52;;;;;;;8.88;4.75;;;22.80;99.90;;;;;;7345161;32;20450;-56
2023/06/12 05:47:55;;;;;;;8.57;4.60;;;23.20;99.90;;;;;;7345762;32;20313;-56
2023/06/12 05:51:57;;;;;;;9.65;4.70;;;23.40;99.90;;;;;;7342276;32;20138;-54
2023/06/12 05:55:58;;;;;;;6.10;4.65;;;23.60;99.90;;;;;;7345165;32;20262;-57
2023/06/12 06:00:06;;;;;;;6.33;4.53;;;23.80;99.90;;;;;;7350244;32;20636;-60
2023/06/12 06:04:11;;;;;;;6.97;4.60;;;24.10;99.90;;;;;;7343786;32;20136;-61
2023/06/12 06:08:13;;;;;;;6.85;4.20;;;24.60;99.90;;;;;;7344983;32;20114;-61
2023/06/12 06:12:15;;;;;;;10.30;5.10;;;24.60;99.90;;;;;;7346859;32;20501;-61
2023/06/12 06:16:17;;;;;;;5.93;4.90;;;23.70;99.90;;;;;;7338754;32;20112;-60
2023/06/12 06:20:18;;;;;;;6.07;4.45;;;24.40;99.90;;;;;;7344453;32;20110;-60
2023/06/12 06:24:20;;;;;;;8.20;4.50;;;24.70;99.00;;;;;;7343628;32;20122;-59
2023/06/12 06:28:23;;;;;;;8.63;4.75;;;24.40;99.30;;;;;;7342881;32;20194;-57
2023/06/12 06:32:24;;;;;;;7.78;4.93;;;25.40;98.60;;;;;;7340841;32;20148;-57
2023/06/12 06:36:26;;;;;;;9.95;4.47;;;24.60;98.80;;;;;;7348018;32;20130;-57
2023/06/12 06:40:28;;;;;;;8.98;4.87;;;24.00;98.10;;;;;;7349622;32;20203;-57
2023/06/12 06:44:30;;;;;;;6.20;4.05;;;24.50;97.90;;;;;;7346109;32;20223;-58
2023/06/12 06:48:32;;;;;;;9.10;4.50;;;25.50;99.90;;;;;;7336239;32;20237;-58
2023/06/12 06:52:34;;;;;;;6.10;5.30;;;24.90;96.00;;;;;;7347233;32;20288;-57
2023/06/12 06:56:35;;;;;;;9.18;4.25;;;23.90;96.80;;;;;;7346025;32;20118;-57
2023/06/12 07:00:37;;;;;;;9.35;4.62;;;25.60;98.60;;;;;;7358153;32;20242;-57
2023/06/12 07:04:40;;;;;;;7.90;4.45;;;26.00;93.50;;;;;;7351619;32;20229;-57
2023/06/12 07:08:41;;;;;;;6.28;4.97;;;26.80;94.40;;;;;;7360988;32;20265;-57
2023/06/12 07:12:43;;;;;;;6.15;4.18;;;26.50;90.90;;;;;;7343750;32;20096;-57
2023/06/12 07:16:45;;;;;;;5.20;4.43;;;26.80;92.90;;;;;;7343502;32;20107;-58
2023/06/12 07:20:47;;;;;;;7.37;4.30;;;27.30;93.20;;;;;;7352199;32;20332;-57
2023/06/12 07:24:48;;;;;;;4.70;3.90;;;27.70;88.40;;;;;;7342986;32;20107;-58
2023/06/12 07:28:50;;;;;;;8.05;4.53;;;27.00;86.50;;;;;;7353900;32;20770;-59
2023/06/12 07:32:52;;;;;;;6.97;4.87;;;25.70;86.00;;;;;;7356811;32;20247;-57
2023/06/12 07:36:54;;;;;;;5.25;4.75;;;25.40;89.10;;;;;;7352929;32;20181;-57
2023/06/12 07:40:56;;;;;;;7.43;4.60;;;25.30;90.70;;;;;;7349087;32;20175;-58
2023/06/12 07:44:58;;;;;;;8.48;5.10;;;24.90;90.90;;;;;;7352199;32;20481;-58
2023/06/12 07:48:59;;;;;;;6.12;4.10;;;24.90;91.30;;;;;;7353720;32;20163;-58
2023/06/12 07:53:02;;;;;;;7.62;4.68;;;24.70;92.80;;;;;;7344308;32;20526;-57
2023/06/12 07:57:06;;;;;;;7.47;4.57;;;25.20;91.90;;;;;;7343489;32;20166;-57
2023/06/12 08:01:08;;;;;;;4.90;4.10;;;25.50;91.60;;;;;;7348637;32;20116;-57
2023/06/12 08:05:11;;;;;;;6.65;3.92;;;26.40;90.10;;;;;;7346267;32;20219;-59
2023/06/12 08:09:14;;;;;;;7.00;4.32;;;27.10;87.30;;;;;;7349648;32;20224;-57
2023/06/12 08:13:16;;;;;;;5.00;4.50;;;27.50;82.60;;;;;;7345785;32;20563;-58
2023/06/12 08:17:18;;;;;;;6.97;4.20;;;27.70;80.50;;;;;;7347787;32;20124;-57
2023/06/12 08:21:20;;;;;;;7.93;4.72;;;28.10;81.10;;;;;;7353784;32;20111;-56
2023/06/12 08:25:21;;;;;;;6.15;4.40;;;27.90;79.60;;;;;;7352586;32;20210;-58
2023/06/12 08:29:27;;;;;;;7.07;4.50;;;26.20;84.10;;;;;;7345109;32;20118;-58
2023/06/12 08:33:29;;;;;;;9.70;4.45;;;25.70;86.00;;;;;;7348686;32;20172;-57
2023/06/12 08:37:33;;;;;;;4.97;4.50;;;25.90;84.50;;;;;;7352053;32;20250;-58
2023/06/12 08:41:40;;;;;;;5.93;4.12;;;26.70;84.60;;;;;;7353115;32;20183;-57
2023/06/12 08:45:47;;;;;;;5.25;4.05;;;27.30;81.30;;;;;;7352273;32;20202;-57
2023/06/12 08:49:50;;;;;;;6.32;4.45;;;28.30;78.50;;;;;;7349964;32;20145;-58
2023/06/12 08:53:54;;;;;;;6.32;4.37;;;28.70;79.60;;;;;;7341982;32;20222;-57
2023/06/12 08:57:58;;;;;;;7.62;4.68;;;28.80;75.90;;;;;;7349606;32;20590;-57
2023/06/12 09:02:00;;;;;;;6.37;4.25;;;28.50;75.80;;;;;;7349331;32;20267;-57
2023/06/12 09:06:18;;;;;;;5.50;4.60;;;28.90;77.00;;;;;;7347303;32;20540;-57
2023/06/12 09:10:20;;;;;;;4.82;4.32;;;28.90;78.10;;;;;;7346937;32;20226;-57
2023/06/12 09:14:22;;;;;;;5.97;4.18;;;29.70;79.20;;;;;;7344852;32;20711;-57
2023/06/12 09:18:24;;;;;;;4.72;4.18;;;30.50;74.90;;;;;;7344106;32;20357;-54
2023/06/12 09:22:27;;;;;;;8.32;4.10;;;29.80;69.90;;;;;;7344123;32;20119;-54
2023/06/12 09:26:29;;;;;;;6.65;4.12;;;30.90;76.10;;;;;;7344038;32;20543;-57
2023/06/12 09:30:32;;;;;;;8.13;4.53;;;31.00;70.50;;;;;;7348791;32;20103;-57
2023/06/12 09:34:34;;;;;;;7.87;4.00;;;30.70;67.10;;;;;;7346562;32;20315;-57
2023/06/12 09:38:36;;;;;;;5.07;4.00;;;30.90;74.60;;;;;;7347976;32;20111;-57
2023/06/12 09:42:39;;;;;;;4.93;4.40;;;30.90;66.60;;;;;;7343167;32;20099;-57
2023/06/12 09:46:41;;;;;;;4.12;3.72;;;30.90;64.10;;;;;;7344329;32;20539;-57
2023/06/12 09:50:45;;;;;;;27.92;8.60;;;31.30;68.90;;;;;;7347577;32;20111;-57
2023/06/12 09:54:47;;;;;;;6.10;3.75;;;31.60;69.10;;;;;;7350548;32;20218;-57
2023/06/12 09:58:50;;;;;;;7.47;3.67;;;31.70;60.70;;;;;;7344038;32;20126;-56
2023/06/12 10:03:04;;;;;;;5.68;3.67;;;31.60;62.20;;;;;;7343694;32;20281;-57
2023/06/12 10:07:16;;;;;;;6.47;3.58;;;31.70;65.20;;;;;;7350475;32;20545;-57
2023/06/12 10:11:18;;;;;;;4.72;3.60;;;32.30;64.40;;;;;;7337560;32;20197;-57
2023/06/12 10:15:20;;;;;;;4.35;3.47;;;32.40;56.40;;;;;;7349948;32;20151;-60
2023/06/12 10:19:25;;;;;;;5.57;3.62;;;32.50;57.40;;;;;;7348454;32;20255;-58
2023/06/12 10:23:28;;;;;;;6.70;3.78;;;32.60;58.10;;;;;;7347268;32;20144;-57
2023/06/12 10:27:35;;;;;;;5.55;3.70;;;32.80;60.10;;;;;;7354715;32;20118;-58
2023/06/12 10:31:39;;;;;;;4.00;3.40;;;32.90;57.00;;;;;;7347819;32;20728;-57
2023/06/12 10:35:41;;;;;;;5.28;3.72;;;32.80;58.00;;;;;;7350779;32;20107;-57
2023/06/12 10:39:46;;;;;;;6.35;3.85;;;32.90;57.00;;;;;;7347591;32;20209;-57
2023/06/12 10:43:48;;;;;;;4.30;3.40;;;33.10;57.70;;;;;;7347268;32;20191;-57
2023/06/12 10:48:06;;;;;;;3.70;3.40;;;32.70;53.50;;;;;;7347539;32;20861;-59
2023/06/12 10:52:22;;;;;;;4.68;3.15;;;32.50;55.90;;;;;;7352973;32;20237;-58
2023/06/12 10:56:24;;;;;;;5.85;3.80;;;32.70;56.00;;;;;;7349425;32;20129;-58
2023/06/12 11:00:32;;;;;;;4.78;3.92;;;32.80;55.20;;;;;;7346104;32;20750;-57
2023/06/12 11:04:37;;;;;;;6.37;4.28;;;32.40;53.70;;;;;;7346665;32;20234;-58
2023/06/12 11:08:42;;;;;;;;;;;32.80;56.30;;;;;;7354255;32;20119;-57
2023/06/12 11:12:48;;;;;;;4.78;3.67;;;32.90;54.50;;;;;;7350146;32;20049;-56
2023/06/12 11:16:58;;;;;;;5.32;3.80;;;32.80;53.10;;;;;;7348162;32;20176;-57
2023/06/12 11:21:00;;;;;;;4.97;4.00;;;32.30;54.70;;;;;;7345298;32;20123;-58
2023/06/12 11:25:06;;;;;;;4.50;3.85;;;32.60;57.60;;;;;;7354059;32;20139;-58
2023/06/12 11:29:15;;;;;;;4.95;4.18;;;32.40;53.90;;;;;;7349756;32;20115;-57
2023/06/12 11:33:22;;;;;;;4.68;3.78;;;32.60;54.50;;;;;;7351941;32;20136;-58
2023/06/12 11:37:26;;;;;;;4.62;3.67;;;32.90;56.80;;;;;;7351769;32;20224;-58
2023/06/12 11:41:28;;;;;;;6.22;3.97;;;33.00;54.70;;;;;;7347469;32;20112;-57
2023/06/12 11:45:31;;;;;;;7.12;4.32;;;32.90;52.00;;;;;;7353167;32;20111;-57
2023/06/12 11:49:36;;;;;;;4.62;3.80;;;33.10;53.80;;;;;;7355144;32;20107;-58
2023/06/12 11:53:40;;;;;;;7.10;3.90;;;33.30;55.10;;;;;;7346889;32;20117;-57
2023/06/12 11:57:49;;;;;;;4.35;3.72;;;32.80;53.60;;;;;;7358359;32;20111;-57
2023/06/12 12:01:52;;;;;;;4.40;3.97;;;33.00;55.30;;;;;;7355112;32;20135;-57
2023/06/12 12:05:54;;;;;;;4.60;4.00;;;33.20;51.90;;;;;;7345116;32;20320;-57
2023/06/12 12:10:09;;;;;;;5.55;3.90;;;33.20;50.60;;;;;;7335913;32;20111;-58
2023/06/12 12:14:11;;;;;;;5.90;4.30;;;32.50;53.50;;;;;;7340836;32;20182;-57
2023/06/12 12:18:14;;;;;;;5.60;4.22;;;31.50;55.00;;;;;;7346845;32;20111;-57
2023/06/12 12:22:19;;;;;;;7.18;4.00;;;30.70;55.10;;;;;;7345603;32;20100;-57
2023/06/12 12:26:21;;;;;;;6.30;4.20;;;30.30;55.20;;;;;;7351887;32;20128;-57
2023/06/12 12:30:23;;;;;;;7.20;4.03;;;29.90;58.30;;;;;;7344440;32;20745;-58
2023/06/12 12:34:26;;;;;;;8.45;4.22;;;28.80;58.90;;;;;;7351683;32;20193;-56
2023/06/12 12:38:28;;;;;;;9.23;4.18;;;28.30;59.80;;;;;;7346638;32;20222;-57
2023/06/12 12:42:30;;;;;;;5.93;4.62;;;28.20;62.90;;;;;;7344082;32;20112;-56
2023/06/12 12:46:32;;;;;;;5.97;4.70;;;28.10;62.10;;;;;;7345280;32;20170;-57
2023/06/12 12:50:34;;;;;;;5.00;4.50;;;28.10;61.90;;;;;;7348439;32;20767;-57
2023/06/12 12:54:46;;;;;;;5.20;4.45;;;28.10;63.60;;;;;;7342616;32;20150;-57
2023/06/12 12:58:50;;;;;;;7.90;5.15;;;28.00;62.70;;;;;;7348103;32;20100;-57
2023/06/12 13:02:51;;;;;;;7.65;4.50;;;28.00;62.00;;;;;;7337350;32;20186;-57
2023/06/12 13:06:53;;;;;;;6.05;4.87;;;28.30;61.30;;;;;;7342691;32;20213;-57
2023/06/12 13:10:56;;;;;;;6.97;5.20;;;27.80;62.20;;;;;;7340243;32;20230;-57
2023/06/12 13:14:57;;;;;;;8.02;4.37;;;27.70;61.90;;;;;;7341646;32;20321;-57
2023/06/12 13:18:59;;;;;;;6.55;5.07;;;27.40;62.80;;;;;;7338475;32;20173;-57
2023/06/12 13:23:01;;;;;;;15.30;5.03;;;27.40;63.00;;;;;;7347906;32;20181;-57
2023/06/12 13:27:03;;;;;;;7.10;6.37;;;27.50;65.10;;;;;;7342325;32;20115;-57
2023/06/12 13:31:05;;;;;;;9.52;4.60;;;27.60;64.30;;;;;;7342628;32;20265;-57
2023/06/12 13:35:08;;;;;;;4.80;4.40;;;28.10;63.00;;;;;;7343303;32;20164;-57
2023/06/12 13:39:10;;;;;;;6.55;5.45;;;28.40;63.70;;;;;;7344532;32;20234;-57
2023/06/12 13:43:12;;;;;;;5.12;4.62;;;28.70;63.50;;;;;;7347983;32;20137;-57
2023/06/12 13:47:14;;;;;;;5.07;4.50;;;29.10;60.30;;;;;;7340464;32;20711;-59
2023/06/12 13:51:17;;;;;;;7.60;4.80;;;28.60;58.40;;;;;;7348735;32;20160;-57
2023/06/12 13:55:19;;;;;;;5.25;4.75;;;29.00;57.90;;;;;;7349014;32;20104;-57
2023/06/12 13:59:20;;;;;;;4.97;4.03;;;29.20;56.40;;;;;;7342711;32;20161;-58
2023/06/12 14:03:22;;;;;;;8.35;5.00;;;29.80;59.40;;;;;;7339940;32;20199;-57
2023/06/12 14:07:24;;;;;;;5.65;4.95;;;29.60;55.30;;;;;;7344882;32;20907;-57
2023/06/12 14:11:26;;;;;;;8.23;5.65;;;30.10;54.90;;;;;;7345780;32;20461;-56
2023/06/12 14:15:28;;;;;;;8.25;5.35;;;29.70;56.10;;;;;;7346072;32;20095;-57
2023/06/12 14:19:30;;;;;;;8.73;5.68;;;30.10;53.80;;;;;;7347461;32;20107;-57
2023/06/12 14:23:32;;;;;;;9.70;5.40;;;30.40;52.90;;;;;;7339452;32;20721;-58
2023/06/12 14:27:35;;;;;;;7.95;5.80;;;31.20;52.60;;;;;;7347222;32;20209;-58
2023/06/12 14:31:37;;;;;;;8.35;5.72;;;29.90;52.60;;;;;;7343995;32;20130;-57
2023/06/12 14:35:38;;;;;;;9.13;6.32;;;29.70;53.80;;;;;;7341540;32;20663;-57
2023/06/12 14:39:41;;;;;;;7.45;5.57;;;29.90;55.40;;;;;;7349730;32;20110;-57
2023/06/12 14:43:43;;;;;;;6.85;5.53;;;29.60;54.50;;;;;;7344685;32;21673;-58
2023/06/12 14:47:45;;;;;;;7.07;5.25;;;30.30;54.10;;;;;;7348693;32;20128;-58
2023/06/12 14:51:47;;;;;;;9.90;6.28;;;30.40;53.50;;;;;;7349524;32;20115;-57
2023/06/12 14:55:49;;;;;;;7.50;5.45;;;30.60;52.70;;;;;;7342200;32;20218;-57
2023/06/12 14:59:51;;;;;;;10.82;5.85;;;29.90;52.80;;;;;;7347957;32;20695;-58
2023/06/12 15:03:52;;;;;;;11.32;6.15;;;29.20;55.20;;;;;;7346873;32;20145;-57
2023/06/12 15:07:57;;;;;;;8.02;6.32;;;28.60;55.60;;;;;;7352337;32;20119;-57
2023/06/12 15:11:58;;;;;;;6.90;6.20;;;28.40;55.40;;;;;;7350857;32;20831;-57
2023/06/12 15:16:00;;;;;;;9.25;5.68;;;28.30;57.30;;;;;;7347966;32;20153;-59
2023/06/12 15:20:02;;;;;;;7.22;5.82;;;28.70;56.00;;;;;;7352635;32;20547;-58
2023/06/12 15:24:04;;;;;;;6.97;5.65;;;28.90;55.90;;;;;;7351367;32;20834;-58
2023/06/12 15:28:06;;;;;;;7.85;5.15;;;28.30;54.90;;;;;;7354618;32;20606;-57
2023/06/12 15:32:08;;;;;;;10.50;5.78;;;28.30;57.00;;;;;;7353846;32;20655;-57
2023/06/12 15:36:10;;;;;;;7.15;5.75;;;28.30;56.50;;;;;;7351204;32;20160;-57
2023/06/12 15:40:12;;;;;;;7.20;5.80;;;28.10;56.00;;;;;;7353493;32;20123;-57
2023/06/12 15:44:14;;;;;;;6.62;5.85;;;28.00;54.20;;;;;;7353137;32;20174;-58
2023/06/12 15:48:16;;;;;;;6.62;5.97;;;28.10;54.60;;;;;;7354740;32;20137;-58
2023/06/12 15:52:18;;;;;;;7.75;6.25;;;28.10;55.60;;;;;;7353390;32;20245;-58
2023/06/12 15:56:19;;;;;;;12.18;6.03;;;27.80;53.80;;;;;;7351895;32;20160;-58
2023/06/12 16:00:21;;;;;;;6.65;5.90;;;27.60;54.40;;;;;;7352134;32;20197;-57
2023/06/12 16:04:23;;;;;;;6.80;5.05;;;27.50;54.80;;;;;;7345833;32;20427;-57
2023/06/12 16:08:25;;;;;;;6.72;5.75;;;27.50;55.60;;;;;;7342878;32;20258;-57
2023/06/12 16:12:27;;;;;;;8.20;6.03;;;27.50;54.60;;;;;;7348568;32;20167;-58
2023/06/12 16:16:29;;;;;;;9.38;5.93;;;27.40;53.90;;;;;;7348207;32;20174;-58
2023/06/12 16:20:30;;;;;;;9.32;5.72;;;27.40;53.30;;;;;;7348884;32;20103;-58
2023/06/12 16:24:32;;;;;;;9.65;5.68;;;27.40;53.50;;;;;;7353219;32;20550;-58
2023/06/12 16:28:34;;;;;;;10.60;5.82;;;27.30;53.60;;;;;;7341868;32;20147;-58
2023/06/12 16:32:36;;;;;;;11.90;5.85;;;27.20;53.60;;;;;;7350358;32;20115;-58
2023/06/12 16:36:37;;;;;;;9.50;5.70;;;27.20;54.50;;;;;;7343446;32;20485;-57
2023/06/12 16:40:40;;;;;;;11.80;5.62;;;27.10;55.90;;;;;;7348744;32;20175;-58
2023/06/12 16:44:41;;;;;;;10.10;5.25;;;26.70;55.00;;;;;;7345446;32;20442;-56
2023/06/12 16:48:44;;;;;;;5.95;5.03;;;26.70;54.90;;;;;;7346510;32;20111;-57
2023/06/12 16:52:46;;;;;;;9.98;5.62;;;26.60;54.10;;;;;;7347922;32;20200;-57
2023/06/12 16:56:47;;;;;;;7.40;5.30;;;26.60;55.30;;;;;;7348226;32;20198;-57
2023/06/12 17:00:51;;;;;;;9.77;5.40;;;26.50;54.80;;;;;;7351167;32;20168;-57
2023/06/12 17:04:53;;;;;;;7.45;5.18;;;26.50;54.60;;;;;;7345181;32;20151;-57
2023/06/12 17:08:55;;;;;;;9.38;7.10;;;26.50;54.80;;;;;;7346981;32;20160;-57
2023/06/12 17:12:56;;;;;;;6.85;5.20;;;26.40;56.10;;;;;;7348113;32;20465;-57
2023/06/12 17:16:58;;;;;;;6.62;5.10;;;26.30;55.50;;;;;;7346303;32;20139;-57
2023/06/12 17:21:00;;;;;;;8.63;5.15;;;26.30;55.80;;;;;;7347286;32;20099;-58
2023/06/12 17:25:02;;;;;;;7.65;4.72;;;26.20;56.10;;;;;;7347518;32;20171;-57
2023/06/12 17:29:04;;;;;;;5.87;4.68;;;26.10;55.30;;;;;;7347843;32;20513;-56
2023/06/12 17:33:06;;;;;;;14.25;12.63;;;26.10;56.60;;;;;;7349252;32;20103;-56
2023/06/12 17:37:08;;;;;;;7.35;4.85;;;26.10;55.70;;;;;;7343698;32;20533;-57
2023/06/12 17:41:10;;;;;;;6.95;5.07;;;26.00;57.20;;;;;;7347243;32;20149;-58
2023/06/12 17:45:12;;;;;;;8.30;4.80;;;26.00;56.20;;;;;;7342857;32;20167;-56
2023/06/12 17:49:13;;;;;;;6.50;4.90;;;25.90;56.40;;;;;;7343028;32;20131;-57
2023/06/12 17:53:15;;;;;;;12.20;5.68;;;25.80;57.10;;;;;;7346875;32;20190;-57
2023/06/12 17:57:17;;;;;;;5.95;5.10;;;25.80;57.30;;;;;;7347203;32;20115;-57
2023/06/12 18:01:19;;;;;;;8.23;5.20;;;25.80;57.50;;;;;;7352307;32;20526;-57
2023/06/12 18:05:20;;;;;;;7.95;4.90;;;25.60;56.90;;;;;;7353517;32;20211;-57
2023/06/12 18:09:22;;;;;;;7.15;5.05;;;25.60;57.00;;;;;;7342417;32;20474;-57
2023/06/12 18:13:24;;;;;;;6.68;4.82;;;25.50;57.90;;;;;;7342102;32;20172;-57
2023/06/12 18:17:26;;;;;;;8.98;4.97;;;25.40;57.60;;;;;;7334900;32;20130;-57
2023/06/12 18:21:28;;;;;;;7.80;5.18;;;25.40;57.70;;;;;;7343625;32;20202;-57
2023/06/12 18:25:30;;;;;;;5.55;4.60;;;25.30;58.70;;;;;;7343597;32;20140;-57
2023/06/12 18:29:32;;;;;;;5.20;4.70;;;25.10;58.50;;;;;;7343194;32;20502;-58
2023/06/12 18:33:34;;;;;;;8.07;4.95;;;25.00;58.20;;;;;;7341276;32;20439;-57
2023/06/12 18:37:36;;;;;;;8.45;4.75;;;25.00;58.50;;;;;;7339758;32;20238;-57
2023/06/12 18:41:38;;;;;;;7.07;4.70;;;24.90;59.10;;;;;;7346743;32;20751;-58
2023/06/12 18:45:41;;;;;;;5.30;4.25;;;24.80;59.80;;;;;;7346933;32;20106;-58
2023/06/12 18:49:42;;;;;;;8.52;4.78;;;24.70;59.50;;;;;;7349849;32;20353;-57
2023/06/12 18:53:44;;;;;;;10.68;4.65;;;24.50;59.50;;;;;;7343662;32;20222;-58
2023/06/12 18:57:46;;;;;;;4.85;4.35;;;24.40;59.90;;;;;;7350279;32;20123;-58
2023/06/12 19:01:48;;;;;;;7.05;4.93;;;24.30;59.60;;;;;;7348390;32;20099;-59
2023/06/12 19:05:50;;;;;;;5.37;4.22;;;24.20;60.20;;;;;;7346944;32;20103;-59
2023/06/12 19:09:52;;;;;;;6.97;5.10;;;24.00;60.90;;;;;;7348371;32;20100;-58
2023/06/12 19:13:55;;;;;;;6.50;4.70;;;23.80;61.50;;;;;;7348270;32;20193;-58
2023/06/12 19:17:58;;;;;;;5.28;4.65;;;23.70;62.00;;;;;;7341920;32;20273;-56
2023/06/12 19:22:00;;;;;;;8.88;5.43;;;23.60;63.20;;;;;;7348372;32;20185;-57
2023/06/12 19:26:02;;;;;;;7.50;4.43;;;23.50;63.70;;;;;;7347212;32;20112;-57
2023/06/12 19:30:05;;;;;;;7.28;4.75;;;23.30;64.50;;;;;;7346755;32;20111;-56
2023/06/12 19:34:07;;;;;;;8.05;4.30;;;23.20;65.00;;;;;;7339343;32;20104;-57
2023/06/12 19:38:08;;;;;;;6.80;4.03;;;23.10;65.70;;;;;;7351141;32;20119;-57
2023/06/12 19:42:11;;;;;;;9.13;4.50;;;23.00;65.80;;;;;;7346964;32;20108;-57
2023/06/12 19:46:13;;;;;;;8.30;4.45;;;22.90;66.40;;;;;;7355049;32;20132;-57
2023/06/12 19:50:16;;;;;;;11.25;4.57;;;22.80;66.60;;;;;;7352602;32;20197;-56
2023/06/12 19:54:17;;;;;;;8.32;4.60;;;22.70;67.60;;;;;;7350949;32;20178;-57
2023/06/12 19:58:19;;;;;;;7.43;4.32;;;22.50;68.20;;;;;;7347646;32;20112;-57
2023/06/12 20:02:21;;;;;;;8.18;4.40;;;22.30;68.60;;;;;;7344787;32;20146;-57
2023/06/12 20:06:23;;;;;;;7.30;4.60;;;22.20;68.80;;;;;;7344939;32;20661;-56
2023/06/12 20:10:24;;;;;;;6.28;4.00;;;22.20;69.30;;;;;;7347178;32;20119;-56
2023/06/12 20:14:26;;;;;;;10.50;4.37;;;22.10;69.90;;;;;;7343960;32;20107;-55
2023/06/12 20:18:28;;;;;;;5.82;3.87;;;22.00;70.70;;;;;;7343841;32;20115;-56
2023/06/12 20:22:30;;;;;;;7.18;4.00;;;21.90;70.30;;;;;;7336764;32;20168;-56
2023/06/12 20:26:34;;;;;;;7.43;4.12;;;21.80;71.40;;;;;;7349291;32;20135;-56
2023/06/12 20:30:36;;;;;;;7.12;3.87;;;21.70;71.10;;;;;;7337608;32;20127;-56
2023/06/12 20:34:38;;;;;;;4.70;3.80;;;21.60;72.10;;;;;;7347801;32;20520;-56
2023/06/12 20:38:40;;;;;;;8.40;4.07;;;21.50;72.60;;;;;;7340481;32;20107;-57
2023/06/12 20:42:41;;;;;;;6.50;3.60;;;21.40;73.60;;;;;;7347644;32;20107;-56
2023/06/12 20:46:43;;;;;;;4.65;3.72;;;21.20;74.80;;;;;;7345055;32;20369;-58
2023/06/12 20:50:45;;;;;;;5.65;3.65;;;21.00;75.70;;;;;;7342824;32;20205;-59
2023/06/12 20:54:47;;;;;;;7.45;3.87;;;20.90;77.00;;;;;;7337047;32;20099;-59
2023/06/12 20:58:52;;;;;;;4.50;4.00;;;20.70;77.40;;;;;;7349046;32;20143;-58
2023/06/12 21:02:54;;;;;;;7.78;3.83;;;20.60;79.90;;;;;;7351576;32;20166;-59